createdAt,value
2024-05-09T00:00:44.333Z,76.72
2024-05-09T00:03:32.349Z,76.69
2024-05-09T00:06:00.097Z,76.67
2024-05-09T00:08:27.763Z,76.80
2024-05-09T00:10:57.531Z,76.90
2024-05-09T00:13:25.156Z,76.90
2024-05-09T00:15:52.595Z,76.83
2024-05-09T00:18:20.247Z,76.87
2024-05-09T00:20:47.825Z,76.88
2024-05-09T00:23:15.583Z,76.64
2024-05-09T00:25:43.791Z,76.50
2024-05-09T00:28:12.695Z,76.81
2024-05-09T00:30:40.772Z,76.77
2024-05-09T00:33:10.107Z,75.89
2024-05-09T00:35:38.965Z,76.01
2024-05-09T00:38:06.905Z,75.94
2024-05-09T00:40:44.764Z,76.07
2024-05-09T00:43:14.198Z,76.28
2024-05-09T00:45:43.809Z,76.39
2024-05-09T00:48:15.237Z,76.47
2024-05-09T00:50:46.145Z,76.65
2024-05-09T00:53:16.349Z,76.48
2024-05-09T00:55:44.499Z,76.44
2024-05-09T00:58:15.527Z,76.75
2024-05-09T01:00:43.265Z,76.91
2024-05-09T01:03:12.885Z,77.17
2024-05-09T01:05:43.619Z,77.25
2024-05-09T01:08:12.535Z,76.97
2024-05-09T01:10:43.742Z,76.65
2024-05-09T01:13:13.014Z,76.69
2024-05-09T01:15:41.152Z,77.10
2024-05-09T01:18:12.089Z,77.27
2024-05-09T01:20:43.732Z,77.44
2024-05-09T01:23:15.397Z,77.42
2024-05-09T01:25:45.950Z,77.23
2024-05-09T01:28:15.024Z,77.41
2024-05-09T01:30:42.621Z,77.39
2024-05-09T01:33:11.763Z,77.51
2024-05-09T01:35:41.684Z,77.70
2024-05-09T01:38:16.807Z,77.80
2024-05-09T01:40:44.949Z,77.74
2024-05-09T01:43:12.556Z,77.80
2024-05-09T01:45:40.617Z,77.96
2024-05-09T01:48:09.767Z,77.94
2024-05-09T01:50:41.325Z,78.08
2024-05-09T01:53:12.617Z,78.19
2024-05-09T01:55:40.604Z,78.16
2024-05-09T01:58:09.259Z,78.14
2024-05-09T02:00:41.028Z,78.13
2024-05-09T02:03:15.130Z,78.28
2024-05-09T02:05:47.230Z,78.38
2024-05-09T02:08:20.063Z,78.38
2024-05-09T02:10:48.872Z,78.47
2024-05-09T02:13:16.885Z,78.56
2024-05-09T02:15:44.781Z,78.54
2024-05-09T02:18:13.285Z,78.56
2024-05-09T02:20:43.240Z,78.37
2024-05-09T02:23:12.068Z,78.36
2024-05-09T02:25:41.714Z,78.51
2024-05-09T02:28:09.209Z,78.50
2024-05-09T02:30:40.653Z,78.19
2024-05-09T02:33:11.995Z,78.24
2024-05-09T02:35:43.323Z,78.40
2024-05-09T02:38:12.221Z,78.52
2024-05-09T02:40:40.585Z,78.59
2024-05-09T02:43:11.783Z,78.58
2024-05-09T02:45:40.769Z,78.46
2024-05-09T02:48:13.291Z,78.54
2024-05-09T02:50:42.117Z,78.63
2024-05-09T02:53:14.080Z,78.71
2024-05-09T02:55:43.297Z,78.78
2024-05-09T02:58:11.869Z,78.73
2024-05-09T03:00:42.032Z,78.78
2024-05-09T03:03:14.025Z,78.83
2024-05-09T03:05:45.010Z,78.91
2024-05-09T03:08:13.171Z,78.95
2024-05-09T03:10:40.883Z,78.99
2024-05-09T03:13:09.929Z,79.01
2024-05-09T03:15:37.489Z,79.00
2024-05-09T03:18:06.369Z,79.03
2024-05-09T03:20:35.939Z,79.11
2024-05-09T03:23:06.170Z,79.10
2024-05-09T03:25:34.173Z,79.13
2024-05-09T03:28:01.919Z,79.16
2024-05-09T03:30:36.390Z,79.03
2024-05-09T03:33:15.096Z,79.10
2024-05-09T03:35:43.932Z,79.16
2024-05-09T03:38:11.628Z,79.24
2024-05-09T03:40:46.340Z,79.28
2024-05-09T03:43:14.419Z,79.27
2024-05-09T03:45:42.649Z,79.11
2024-05-09T03:48:10.549Z,79.21
2024-05-09T03:50:38.574Z,79.17
2024-05-09T03:53:09.600Z,79.09
2024-05-09T03:55:37.159Z,79.25
2024-05-09T03:58:05.122Z,79.25
2024-05-09T04:00:38.050Z,79.29
2024-05-09T04:03:11.198Z,79.17
2024-05-09T04:05:42.667Z,78.79
2024-05-09T04:08:11.392Z,78.51
2024-05-09T04:10:39.169Z,78.75
2024-05-09T04:13:06.862Z,78.92
2024-05-09T04:15:34.323Z,78.89
2024-05-09T04:18:02.487Z,78.85
2024-05-09T04:20:37.713Z,78.84
2024-05-09T04:23:11.585Z,78.85
2024-05-09T04:25:44.973Z,78.89
2024-05-09T04:28:14.047Z,78.96
2024-05-09T04:30:42.591Z,78.95
2024-05-09T04:33:13.141Z,78.77
2024-05-09T04:35:42.830Z,78.63
2024-05-09T04:38:11.944Z,78.48
2024-05-09T04:40:39.480Z,78.28
2024-05-09T04:43:14.452Z,78.10
2024-05-09T04:45:41.982Z,77.82
2024-05-09T04:48:09.687Z,77.49
2024-05-09T04:50:39.258Z,77.31
2024-05-09T04:53:09.845Z,77.03
2024-05-09T04:55:40.309Z,76.80
2024-05-09T04:58:09.303Z,76.58
2024-05-09T05:00:39.091Z,76.52
2024-05-09T05:03:10.819Z,76.42
2024-05-09T05:05:41.589Z,76.12
2024-05-09T05:08:17.141Z,75.77
2024-05-09T05:10:46.625Z,75.30
2024-05-09T05:13:23.685Z,75.24
2024-05-09T05:15:56.587Z,75.13
2024-05-09T05:18:26.511Z,75.11
2024-05-09T05:20:55.783Z,74.64
2024-05-09T05:23:24.204Z,74.24
2024-05-09T05:25:53.550Z,74.19
2024-05-09T05:28:21.613Z,74.02
2024-05-09T05:30:49.193Z,73.92
2024-05-09T05:33:20.004Z,73.69
2024-05-09T05:35:48.000Z,73.34
2024-05-09T05:38:15.643Z,73.04
2024-05-09T05:40:43.306Z,72.99
2024-05-09T05:43:17.066Z,72.89
2024-05-09T05:45:45.251Z,73.01
2024-05-09T05:48:13.957Z,73.02
2024-05-09T05:50:42.407Z,72.63
2024-05-09T05:53:10.521Z,72.37
2024-05-09T05:55:40.106Z,72.47
2024-05-09T05:58:11.900Z,72.38
2024-05-09T06:00:41.732Z,72.35
2024-05-09T06:03:11.834Z,72.15
2024-05-09T06:05:40.700Z,72.03
2024-05-09T06:08:09.096Z,71.86
2024-05-09T06:10:39.829Z,71.61
2024-05-09T06:13:10.809Z,71.59
2024-05-09T06:15:39.678Z,71.34
2024-05-09T06:18:08.682Z,71.09
2024-05-09T06:20:38.226Z,70.85
2024-05-09T06:23:06.790Z,70.52
2024-05-09T06:25:36.063Z,70.49
2024-05-09T06:28:04.141Z,70.45
2024-05-09T06:30:40.007Z,70.25
2024-05-09T06:33:12.508Z,69.85
2024-05-09T06:35:42.560Z,69.71
2024-05-09T06:38:10.357Z,69.10
2024-05-09T06:40:41.543Z,68.64
2024-05-09T06:43:15.542Z,68.58
2024-05-09T06:45:45.918Z,68.33
2024-05-09T06:48:13.618Z,68.15
2024-05-09T06:50:41.601Z,67.71
2024-05-09T06:53:09.878Z,67.49
2024-05-09T06:55:37.908Z,67.19
2024-05-09T06:58:06.930Z,66.89
2024-05-09T07:00:39.582Z,66.71
2024-05-09T07:03:11.870Z,66.62
2024-05-09T07:05:40.701Z,66.37
2024-05-09T07:08:08.462Z,66.20
2024-05-09T07:10:36.829Z,66.03
2024-05-09T07:13:09.412Z,65.83
2024-05-09T07:15:37.172Z,65.74
2024-05-09T07:18:17.117Z,65.78
2024-05-09T07:20:47.654Z,65.56
2024-05-09T07:23:18.195Z,65.10
2024-05-09T07:25:46.119Z,64.81
2024-05-09T07:28:19.029Z,64.57
2024-05-09T07:30:47.388Z,64.47
2024-05-09T07:33:20.840Z,64.20
2024-05-09T07:35:49.855Z,64.22
2024-05-09T07:38:17.479Z,64.27
2024-05-09T07:40:45.025Z,63.83
2024-05-09T07:43:13.792Z,64.19
2024-05-09T07:45:50.656Z,63.81
2024-05-09T07:52:37.155Z,63.14
2024-05-09T07:53:46.312Z,63.12
2024-05-09T07:56:18.312Z,63.16
2024-05-09T07:58:46.683Z,63.43
2024-05-09T08:01:14.222Z,63.15
2024-05-09T08:03:42.084Z,63.00
2024-05-09T08:06:09.732Z,62.40
2024-05-09T08:08:37.171Z,62.23
2024-05-09T08:11:06.325Z,62.31
2024-05-09T08:13:33.902Z,61.83
2024-05-09T08:16:01.530Z,61.80
2024-05-09T08:18:29.376Z,61.33
2024-05-09T08:20:59.651Z,60.59
2024-05-09T08:23:28.419Z,60.62
2024-05-09T08:25:55.864Z,60.05
2024-05-09T08:28:23.384Z,59.74
2024-05-09T08:30:51.072Z,59.58
2024-05-09T08:33:18.726Z,59.81
2024-05-09T08:35:46.383Z,59.61
2024-05-09T08:38:14.027Z,59.74
2024-05-09T08:40:41.706Z,59.86
2024-05-09T08:43:11.512Z,59.62
2024-05-09T08:45:43.958Z,58.87
2024-05-09T08:48:15.223Z,58.43
2024-05-09T08:50:45.177Z,57.97
2024-05-09T08:53:14.992Z,56.46
2024-05-09T08:55:44.544Z,56.41
2024-05-09T08:58:20.271Z,55.52
2024-05-09T09:00:48.654Z,54.23
2024-05-09T09:03:24.814Z,53.62
2024-05-09T09:06:01.938Z,52.59
2024-05-09T09:08:29.401Z,53.66
2024-05-09T09:10:59.906Z,53.79
2024-05-09T09:13:27.564Z,53.87
2024-05-09T09:15:58.236Z,54.48
2024-05-09T09:18:26.876Z,54.77
2024-05-09T09:20:55.138Z,54.77
2024-05-09T09:23:22.941Z,54.19
2024-05-09T09:25:50.477Z,53.82
2024-05-09T09:28:18.077Z,53.84
2024-05-09T09:30:45.802Z,53.52
2024-05-09T09:33:13.778Z,53.56
2024-05-09T09:35:41.566Z,53.13
2024-05-09T09:38:10.109Z,51.77
2024-05-09T09:40:45.008Z,53.32
2024-05-09T09:43:21.946Z,53.33
2024-05-09T09:45:51.658Z,53.07
2024-05-09T09:48:20.163Z,52.86
2024-05-09T09:50:48.683Z,52.54
2024-05-09T09:53:16.723Z,51.70
2024-05-09T09:55:46.426Z,51.83
2024-05-09T09:58:16.936Z,52.92
2024-05-09T10:03:36.038Z,52.53
2024-05-09T10:06:05.324Z,52.59
2024-05-09T10:08:34.463Z,52.38
2024-05-09T10:20:17.956Z,52.21
2024-05-09T10:22:50.397Z,51.39
2024-05-09T10:25:18.165Z,50.87
2024-05-09T10:27:54.700Z,50.31
2024-05-09T10:30:36.099Z,49.79
2024-05-09T10:33:11.003Z,49.99
2024-05-09T10:35:54.314Z,49.90
2024-05-09T10:38:22.096Z,48.14
2024-05-09T10:40:56.417Z,48.68
2024-05-09T10:43:24.573Z,48.31
2024-05-09T10:45:52.397Z,49.88
2024-05-09T10:48:24.597Z,49.64
2024-05-09T10:50:52.264Z,49.41
2024-05-09T10:53:19.719Z,49.18
2024-05-09T10:55:57.114Z,49.11
2024-05-09T10:58:25.594Z,49.34
2024-05-09T11:00:57.743Z,49.04
2024-05-09T11:03:25.517Z,47.05
2024-05-09T11:05:55.025Z,49.21
2024-05-09T11:08:23.632Z,48.68
2024-05-09T11:10:53.508Z,49.08
2024-05-09T11:13:32.136Z,49.09
2024-05-09T11:16:00.722Z,49.78
2024-05-09T11:18:33.464Z,49.13
2024-05-09T11:21:14.121Z,48.45
2024-05-09T11:23:42.032Z,48.18
2024-05-09T11:26:10.622Z,48.17
2024-05-09T11:28:38.446Z,47.97
2024-05-09T11:31:07.909Z,47.70
2024-05-09T11:33:38.417Z,47.29
2024-05-09T11:36:07.762Z,46.70
2024-05-09T11:38:35.444Z,46.48
2024-05-09T11:41:05.150Z,46.43
2024-05-09T11:43:33.262Z,45.49
2024-05-09T11:46:02.487Z,45.34
2024-05-09T11:48:30.760Z,46.02
2024-05-09T11:50:58.485Z,46.40
2024-05-09T11:53:25.919Z,46.50
2024-05-09T11:55:53.510Z,45.23
2024-05-09T11:58:22.662Z,44.91
2024-05-09T12:00:50.617Z,46.00
2024-05-09T12:03:18.395Z,46.11
2024-05-09T12:05:46.459Z,45.77
2024-05-09T12:08:14.141Z,45.68
2024-05-09T12:10:41.900Z,45.74
2024-05-09T12:13:09.643Z,45.93
2024-05-09T12:15:38.372Z,45.26
2024-05-09T12:18:07.769Z,45.85
2024-05-09T12:20:38.807Z,45.36
2024-05-09T12:23:09.687Z,44.71
2024-05-09T12:25:39.747Z,45.21
2024-05-09T12:28:08.768Z,43.85
2024-05-09T12:30:39.990Z,45.12
2024-05-09T12:33:13.207Z,45.06
2024-05-09T12:35:44.289Z,44.97
2024-05-09T12:38:14.783Z,45.42
2024-05-09T12:40:43.074Z,45.59
2024-05-09T12:43:11.561Z,45.38
2024-05-09T12:45:40.348Z,45.36
2024-05-09T12:48:13.195Z,44.98
2024-05-09T12:50:41.737Z,44.91
2024-05-09T12:53:09.935Z,45.00
2024-05-09T12:55:44.903Z,43.88
2024-05-09T12:58:24.128Z,43.31
2024-05-09T13:00:52.485Z,43.62
2024-05-09T13:03:21.519Z,43.94
2024-05-09T13:05:50.418Z,44.27
2024-05-09T13:08:18.856Z,44.01
2024-05-09T13:10:46.904Z,42.81
2024-05-09T13:13:14.734Z,43.39
2024-05-09T13:15:45.406Z,43.71
2024-05-09T13:18:13.260Z,43.79
2024-05-09T13:20:40.730Z,43.38
2024-05-09T13:23:08.792Z,42.64
2024-05-09T13:25:37.996Z,42.41
2024-05-09T13:28:07.589Z,43.26
2024-05-09T13:30:40.095Z,43.04
2024-05-09T13:33:11.941Z,43.10
2024-05-09T13:35:47.489Z,42.86
2024-05-09T13:38:19.325Z,42.57
2024-05-09T13:40:48.004Z,41.94
2024-05-09T13:43:15.913Z,41.98
2024-05-09T13:45:43.806Z,42.33
2024-05-09T13:48:11.681Z,41.77
2024-05-09T13:50:39.497Z,42.83
2024-05-09T13:53:08.339Z,43.24
2024-05-09T13:55:40.207Z,42.38
2024-05-09T13:58:08.837Z,42.21
2024-05-09T14:00:46.373Z,42.37
2024-05-09T14:03:18.991Z,42.11
2024-05-09T14:05:49.864Z,41.74
2024-05-09T14:08:19.592Z,41.31
2024-05-09T14:10:48.415Z,41.20
2024-05-09T14:13:16.385Z,41.51
2024-05-09T14:15:45.308Z,41.03
2024-05-09T14:18:14.186Z,41.63
2024-05-09T14:20:42.872Z,41.72
2024-05-09T14:23:10.963Z,40.88
2024-05-09T14:25:42.176Z,40.86
2024-05-09T14:28:12.957Z,40.70
2024-05-09T14:30:41.773Z,40.52
2024-05-09T14:33:10.137Z,40.15
2024-05-09T14:35:39.060Z,40.06
2024-05-09T14:38:07.755Z,39.72
2024-05-09T14:40:41.956Z,39.17
2024-05-09T14:43:12.990Z,39.47
2024-05-09T14:45:42.051Z,38.94
2024-05-09T14:48:10.524Z,38.56
2024-05-09T14:50:40.075Z,39.60
2024-05-09T14:53:10.159Z,39.06
2024-05-09T14:55:38.882Z,38.93
2024-05-09T14:58:07.821Z,38.30
2024-05-09T15:00:45.746Z,38.65
2024-05-09T15:03:18.750Z,37.49
2024-05-09T15:05:47.196Z,38.81
2024-05-09T15:08:17.144Z,38.92
2024-05-09T15:10:44.808Z,38.78
2024-05-09T15:13:14.579Z,39.72
2024-05-09T15:15:44.407Z,39.72
2024-05-09T15:18:13.650Z,39.76
2024-05-09T15:20:41.596Z,39.28
2024-05-09T15:23:09.303Z,39.28
2024-05-09T15:25:37.157Z,39.05
2024-05-09T15:28:07.089Z,39.28
2024-05-09T15:30:35.218Z,38.52
2024-05-09T15:33:03.388Z,38.98
2024-05-09T15:35:31.576Z,39.51
2024-05-09T15:38:00.137Z,39.42
2024-05-09T15:40:36.092Z,38.32
2024-05-09T15:43:08.862Z,38.89
2024-05-09T15:45:37.632Z,39.15
2024-05-09T15:48:06.432Z,39.09
2024-05-09T15:50:39.070Z,39.34
2024-05-09T15:53:10.249Z,38.78
2024-05-09T15:55:38.557Z,39.06
2024-05-09T15:58:07.352Z,38.49
2024-05-09T16:00:39.644Z,38.45
2024-05-09T16:03:13.008Z,38.93
2024-05-09T16:05:48.240Z,38.51
2024-05-09T16:08:16.420Z,38.74
2024-05-09T16:10:45.877Z,38.51
2024-05-09T16:13:15.557Z,38.30
2024-05-09T16:15:43.911Z,38.14
2024-05-09T16:18:12.283Z,37.85
2024-05-09T16:20:42.157Z,38.17
2024-05-09T16:23:11.141Z,38.01
2024-05-09T16:25:41.600Z,37.60
2024-05-09T16:28:10.767Z,37.93
2024-05-09T16:30:39.723Z,37.91
2024-05-09T16:33:08.650Z,37.92
2024-05-09T16:35:39.256Z,38.45
2024-05-09T16:38:07.250Z,38.39
2024-05-09T16:40:39.666Z,38.46
2024-05-09T16:43:13.195Z,38.65
2024-05-09T16:45:45.802Z,38.36
2024-05-09T16:48:14.117Z,38.71
2024-05-09T16:50:42.337Z,38.80
2024-05-09T16:53:09.851Z,38.90
2024-05-09T16:55:38.558Z,38.97
2024-05-09T16:58:08.159Z,39.31
2024-05-09T17:00:41.236Z,39.34
2024-05-09T17:03:15.827Z,39.48
2024-05-09T17:05:48.306Z,39.62
2024-05-09T17:08:20.191Z,39.82
2024-05-09T17:10:48.656Z,40.24
2024-05-09T17:13:17.297Z,40.30
2024-05-09T17:15:45.322Z,40.29
2024-05-09T17:18:12.875Z,40.82
2024-05-09T17:20:40.339Z,40.62
2024-05-09T17:23:13.384Z,40.90
2024-05-09T17:25:42.626Z,42.60
2024-05-09T17:28:10.991Z,42.31
2024-05-09T17:30:40.737Z,44.22
2024-05-09T17:33:11.185Z,43.62
2024-05-09T17:35:39.883Z,45.68
2024-05-09T17:38:08.002Z,45.18
2024-05-09T17:40:37.578Z,47.74
2024-05-09T17:43:09.158Z,47.89
2024-05-09T17:45:39.778Z,46.15
2024-05-09T17:48:09.541Z,45.48
2024-05-09T17:50:38.384Z,45.15
2024-05-09T17:53:06.517Z,46.23
2024-05-09T17:55:35.236Z,45.81
2024-05-09T17:58:04.614Z,47.03
2024-05-09T18:00:38.919Z,47.54
2024-05-09T18:03:13.998Z,49.99
2024-05-09T18:05:44.512Z,51.53
2024-05-09T18:08:13.257Z,51.92
2024-05-09T18:10:41.575Z,52.37
2024-05-09T18:13:10.790Z,52.72
2024-05-09T18:15:39.336Z,52.61
2024-05-09T18:18:07.970Z,53.64
2024-05-09T18:20:42.203Z,54.10
2024-05-09T18:23:16.432Z,54.32
2024-05-09T18:25:46.107Z,54.89
2024-05-09T18:28:14.546Z,54.99
2024-05-09T18:30:42.950Z,55.17
2024-05-09T18:33:11.962Z,56.48
2024-05-09T18:35:43.827Z,56.71
2024-05-09T18:38:11.452Z,56.39
2024-05-09T18:40:40.886Z,56.14
2024-05-09T18:43:12.533Z,56.25
2024-05-09T18:45:47.771Z,57.43
2024-05-09T18:48:16.703Z,58.07
2024-05-09T18:50:46.455Z,58.28
2024-05-09T18:53:14.754Z,57.75
2024-05-09T18:55:44.650Z,58.29
2024-05-09T18:58:12.770Z,58.50
2024-05-09T19:00:43.823Z,59.08
2024-05-09T19:03:21.667Z,59.42
2024-05-09T19:05:54.110Z,59.49
2024-05-09T19:08:22.142Z,59.80
2024-05-09T19:10:54.270Z,60.29
2024-05-09T19:13:21.779Z,60.23
2024-05-09T19:15:49.375Z,60.91
2024-05-09T19:18:17.478Z,60.88
2024-05-09T19:20:49.535Z,61.28
2024-05-09T19:23:17.128Z,61.18
2024-05-09T19:25:44.626Z,61.52
2024-05-09T19:28:25.413Z,62.06
2024-05-09T19:31:00.240Z,62.20
2024-05-09T19:33:28.441Z,62.39
2024-05-09T19:36:11.407Z,62.78
2024-05-09T19:38:39.964Z,63.06
2024-05-09T19:50:36.864Z,63.98
2024-05-09T19:58:09.602Z,64.60
2024-05-09T20:00:41.025Z,64.88
2024-05-09T20:03:12.417Z,65.20
2024-05-09T20:05:43.940Z,65.40
2024-05-09T20:08:12.102Z,65.51
2024-05-09T20:10:39.744Z,65.66
2024-05-09T20:13:08.248Z,65.81
2024-05-09T20:15:37.641Z,65.94
2024-05-09T20:18:06.464Z,65.41
2024-05-09T20:20:39.746Z,65.49
2024-05-09T20:23:13.972Z,65.46
2024-05-09T20:25:42.099Z,65.26
2024-05-09T20:28:10.371Z,65.39
2024-05-09T20:30:38.627Z,65.05
2024-05-09T20:33:07.796Z,65.27
2024-05-09T20:35:36.739Z,65.87
2024-05-09T20:38:04.887Z,66.00
2024-05-09T20:40:37.061Z,66.07
2024-05-09T20:43:10.702Z,66.54
2024-05-09T20:45:40.127Z,66.46
2024-05-09T20:48:09.957Z,66.51
2024-05-09T20:50:40.941Z,66.46
2024-05-09T20:53:11.985Z,66.28
2024-05-09T20:55:40.407Z,66.84
2024-05-09T20:58:09.710Z,67.11
2024-05-09T21:00:41.444Z,67.26
2024-05-09T21:03:13.803Z,67.19
2024-05-09T21:05:42.416Z,67.23
2024-05-09T21:08:10.169Z,67.14
2024-05-09T21:10:39.336Z,67.59
2024-05-09T21:13:08.256Z,67.79
2024-05-09T21:15:36.807Z,67.62
2024-05-09T21:18:04.994Z,67.49
2024-05-09T21:20:34.774Z,67.78
2024-05-09T21:23:03.415Z,67.93
2024-05-09T21:25:32.017Z,68.41
2024-05-09T21:28:00.765Z,68.37
2024-05-09T21:30:38.411Z,68.04
2024-05-09T21:33:12.283Z,68.29
2024-05-09T21:35:46.998Z,68.67
2024-05-09T21:38:15.090Z,68.59
2024-05-09T21:40:43.651Z,68.47
2024-05-09T21:43:11.468Z,68.53
2024-05-09T21:45:39.229Z,69.07
2024-05-09T21:48:07.617Z,69.51
2024-05-09T21:50:40.530Z,69.68
2024-05-09T21:53:12.058Z,69.78
2024-05-09T21:55:40.686Z,69.98
2024-05-09T21:58:08.354Z,70.16
2024-05-09T22:00:39.437Z,70.27
2024-05-09T22:03:08.443Z,70.06
2024-05-09T22:05:38.902Z,70.13
2024-05-09T22:08:07.274Z,70.01
2024-05-09T22:10:37.343Z,70.06
2024-05-09T22:13:06.553Z,70.12
2024-05-09T22:15:37.676Z,70.26
2024-05-09T22:18:07.464Z,70.50
2024-05-09T22:20:38.307Z,70.21
2024-05-09T22:23:08.500Z,70.38
2024-05-09T22:25:38.232Z,70.59
2024-05-09T22:28:06.239Z,70.37
2024-05-09T22:30:37.751Z,70.40
2024-05-09T22:33:09.285Z,70.49
2024-05-09T22:35:38.343Z,70.65
2024-05-09T22:38:05.964Z,70.69
2024-05-09T22:40:43.076Z,70.68
2024-05-09T22:43:23.831Z,70.60
2024-05-09T22:45:54.870Z,70.76
2024-05-09T22:48:24.760Z,70.67
2024-05-09T22:50:53.886Z,70.65
2024-05-09T22:53:25.911Z,70.78
2024-05-09T22:55:53.890Z,70.67
2024-05-09T22:58:22.678Z,70.98
2024-05-09T23:00:52.659Z,71.08
2024-05-09T23:03:21.892Z,71.48
2024-05-09T23:05:51.187Z,71.41
2024-05-09T23:08:20.835Z,71.44
2024-05-09T23:10:48.368Z,71.67
2024-05-09T23:13:16.232Z,71.51
2024-05-09T23:15:43.923Z,71.62
2024-05-09T23:18:11.716Z,71.80
2024-05-09T23:20:40.226Z,71.79
2024-05-09T23:23:10.387Z,71.79
2024-05-09T23:25:41.227Z,71.94
2024-05-09T23:28:10.009Z,72.11
2024-05-09T23:30:40.312Z,72.31
2024-05-09T23:33:13.097Z,72.48
2024-05-09T23:35:44.041Z,72.52
2024-05-09T23:38:12.713Z,72.77
2024-05-09T23:40:43.782Z,73.01
2024-05-09T23:43:13.067Z,73.05
2024-05-09T23:45:41.773Z,72.86
2024-05-09T23:48:10.683Z,72.88
2024-05-09T23:50:40.084Z,72.99
2024-05-09T23:53:09.591Z,73.21
2024-05-09T23:55:38.157Z,73.31
2024-05-09T23:58:07.328Z,73.50
